Time;durP1;ratioP1;P1;durP2;ratioP2;P2;SDS_P1;SDS_P2;PMS_P1;PMS_P2;Temp;Humidity;BMP_temperature;BMP_pressure;BME280_temperature;BME280_humidity;BME280_pressure;Samples;Min_cycle;Max_cycle;Signal;HPM_P1;HPM_P2
2022/10/12 00:02:23;;;;;;;;;16.25;14.50;;;;;;;;5071630;27;46956;-76
2022/10/12 00:04:48;;;;;;;;;20.00;15.25;;;;;;;;5093347;27;46421;-76
2022/10/12 00:07:13;;;;;;;;;14.75;13.50;;;;;;;;5082064;27;45320;-77
2022/10/12 00:09:39;;;;;;;;;15.25;12.25;;;;;;;;5096107;27;45240;-76
2022/10/12 00:12:04;;;;;;;;;18.25;14.25;;;;;;;;5083290;27;45415;-76
2022/10/12 00:14:29;;;;;;;;;17.00;15.50;;;;;;;;5077466;27;47821;-76
2022/10/12 00:16:54;;;;;;;;;19.25;16.75;;;;;;;;5098770;27;45347;-76
2022/10/12 00:19:20;;;;;;;;;17.00;15.00;;;;;;;;5097695;27;45565;-76
2022/10/12 00:21:45;;;;;;;;;15.50;13.75;;;;;;;;5095714;27;45582;-76
2022/10/12 00:24:10;;;;;;;;;15.50;14.75;;;;;;;;5092830;27;45521;-76
2022/10/12 00:26:35;;;;;;;;;18.75;16.00;;;;;;;;5074329;27;45276;-76
2022/10/12 00:29:01;;;;;;;;;17.00;16.00;;;;;;;;5077942;27;45377;-76
2022/10/12 00:31:27;;;;;;;;;19.50;16.25;;;;;;;;5086976;27;45235;-76
2022/10/12 00:33:53;;;;;;;;;19.75;14.75;;;;;;;;5094882;27;45546;-76
2022/10/12 00:36:20;;;;;;;;;22.25;18.50;;;;;;;;5078612;28;45751;-77
2022/10/12 00:38:46;;;;;;;;;20.25;18.00;;;;;;;;5070190;28;45305;-77
2022/10/12 00:41:11;;;;;;;;;18.50;13.75;;;;;;;;5086780;27;45332;-77
2022/10/12 00:43:38;;;;;;;;;19.75;19.75;;;;;;;;5090627;27;45429;-76
2022/10/12 00:46:21;;;;;;;;;21.00;16.75;;;;;;;;5073185;27;45335;-76
2022/10/12 00:48:49;;;;;;;;;21.50;18.00;;;;;;;;5087554;27;45425;-76
2022/10/12 00:51:15;;;;;;;;;21.50;17.50;;;;;;;;5072276;27;45649;-77
2022/10/12 00:53:44;;;;;;;;;16.75;16.75;;;;;;;;5088226;27;45452;-76
2022/10/12 00:56:11;;;;;;;;;19.25;16.50;;;;;;;;5091916;27;45410;-76
2022/10/12 00:58:37;;;;;;;;;17.75;16.00;;;;;;;;5088602;27;45377;-76
2022/10/12 01:01:03;;;;;;;;;20.50;17.25;;;;;;;;5093279;27;45606;-76
2022/10/12 01:03:30;;;;;;;;;14.75;14.00;;;;;;;;5090608;27;45521;-76
2022/10/12 01:05:55;;;;;;;;;19.50;14.25;;;;;;;;5094558;27;45318;-76
2022/10/12 01:08:21;;;;;;;;;17.50;17.50;;;;;;;;5074366;27;45456;-76
2022/10/12 01:10:46;;;;;;;;;15.75;15.75;;;;;;;;5085918;27;45298;-77
2022/10/12 01:13:12;;;;;;;;;21.50;14.50;;;;;;;;5087974;27;45551;-77
2022/10/12 01:15:50;;;;;;;;;16.75;16.75;;;;;;;;5098583;27;45396;-77
2022/10/12 01:18:20;;;;;;;;;17.75;14.25;;;;;;;;5077231;27;45323;-76
2022/10/12 01:20:49;;;;;;;;;15.00;13.25;;;;;;;;5091750;27;45322;-76
2022/10/12 01:23:14;;;;;;;;;18.50;17.00;;;;;;;;5091215;27;46391;-77
2022/10/12 01:25:51;;;;;;;;;17.00;14.50;;;;;;;;5088950;27;45367;-77
2022/10/12 01:28:22;;;;;;;;;13.50;13.00;;;;;;;;5087668;27;45273;-76
2022/10/12 01:30:51;;;;;;;;;16.00;15.25;;;;;;;;5088468;27;45245;-76
2022/10/12 01:33:19;;;;;;;;;20.00;15.00;;;;;;;;5093123;27;45606;-76
2022/10/12 01:35:50;;;;;;;;;16.75;16.75;;;;;;;;5080258;27;45339;-77
2022/10/12 01:38:24;;;;;;;;;12.25;10.75;;;;;;;;5093825;27;45384;-77
2022/10/12 01:40:55;;;;;;;;;19.75;15.00;;;;;;;;5087741;27;46818;-76
2022/10/12 01:43:22;;;;;;;;;16.75;16.00;;;;;;;;5073456;27;46972;-76
2022/10/12 01:45:47;;;;;;;;;19.25;14.25;;;;;;;;5076633;27;45423;-76
2022/10/12 01:48:12;;;;;;;;;16.25;13.75;;;;;;;;5095867;27;45418;-76
2022/10/12 01:50:48;;;;;;;;;18.75;14.50;;;;;;;;5092836;27;45334;-77
2022/10/12 01:53:13;;;;;;;;;14.25;14.25;;;;;;;;5094321;27;46185;-76
2022/10/12 01:55:53;;;;;;;;;21.25;16.75;;;;;;;;5095127;27;45387;-76
2022/10/12 01:58:30;;;;;;;;;12.75;12.75;;;;;;;;5093875;27;45258;-76
2022/10/12 02:01:15;;;;;;;;;14.00;13.00;;;;;;;;5078811;27;46800;-76
2022/10/12 02:03:40;;;;;;;;;16.00;14.25;;;;;;;;5069178;27;46888;-76
2022/10/12 02:06:11;;;;;;;;;15.25;13.75;;;;;;;;5090185;27;45407;-76
2022/10/12 02:08:55;;;;;;;;;15.75;14.75;;;;;;;;5088005;27;45416;-76
2022/10/12 02:11:22;;;;;;;;;18.50;14.00;;;;;;;;5096017;27;45470;-76
2022/10/12 02:13:52;;;;;;;;;18.75;12.75;;;;;;;;5091304;27;45416;-76
2022/10/12 02:16:18;;;;;;;;;16.50;15.50;;;;;;;;5098141;27;45231;-77
2022/10/12 02:18:45;;;;;;;;;19.75;17.00;;;;;;;;5072014;28;45448;-77
2022/10/12 02:21:12;;;;;;;;;19.25;16.25;;;;;;;;5092557;27;45476;-76
2022/10/12 02:23:38;;;;;;;;;20.50;18.25;;;;;;;;5068460;27;47857;-76
2022/10/12 02:26:04;;;;;;;;;19.25;17.75;;;;;;;;5082985;27;45934;-77
2022/10/12 02:28:31;;;;;;;;;18.00;15.75;;;;;;;;5093330;27;45442;-76
2022/10/12 02:31:19;;;;;;;;;17.50;16.25;;;;;;;;5077519;27;45439;-77
2022/10/12 02:33:55;;;;;;;;;14.50;14.50;;;;;;;;5048221;27;45415;-76
2022/10/12 02:36:24;;;;;;;;;14.50;13.25;;;;;;;;5097335;27;45240;-77
2022/10/12 02:38:58;;;;;;;;;12.50;12.25;;;;;;;;5086966;27;45362;-75
2022/10/12 02:41:28;;;;;;;;;14.75;14.50;;;;;;;;5069380;27;45362;-76
2022/10/12 02:43:57;;;;;;;;;19.00;14.50;;;;;;;;5090584;27;45608;-76
2022/10/12 02:46:24;;;;;;;;;14.00;12.25;;;;;;;;5087765;27;45385;-76
2022/10/12 02:48:52;;;;;;;;;18.25;16.00;;;;;;;;5086543;27;45319;-75
2022/10/12 02:51:18;;;;;;;;;14.75;14.75;;;;;;;;5091006;27;45423;-76
2022/10/12 02:53:44;;;;;;;;;20.00;14.75;;;;;;;;5066358;27;46928;-75
2022/10/12 02:56:11;;;;;;;;;18.50;14.00;;;;;;;;5095847;27;45239;-78
2022/10/12 02:58:36;;;;;;;;;14.50;14.00;;;;;;;;5087048;27;45392;-78
2022/10/12 03:01:01;;;;;;;;;16.50;16.50;;;;;;;;5098172;27;45338;-78
2022/10/12 03:03:27;;;;;;;;;14.50;12.75;;;;;;;;5073708;27;46361;-78
2022/10/12 03:05:52;;;;;;;;;18.25;14.75;;;;;;;;5077703;27;45353;-78
2022/10/12 03:08:17;;;;;;;;;20.00;14.00;;;;;;;;5068495;27;45260;-78
2022/10/12 03:10:42;;;;;;;;;17.25;13.50;;;;;;;;5093821;27;45229;-78
2022/10/12 03:13:07;;;;;;;;;15.00;11.50;;;;;;;;5088559;27;46695;-75
2022/10/12 03:15:33;;;;;;;;;13.00;13.00;;;;;;;;5078952;27;45521;-75
2022/10/12 03:17:58;;;;;;;;;14.25;12.25;;;;;;;;5087798;27;45419;-78
2022/10/12 03:20:23;;;;;;;;;14.25;12.75;;;;;;;;5078582;27;45914;-78
2022/10/12 03:22:48;;;;;;;;;13.25;13.25;;;;;;;;5069425;28;45435;-78
2022/10/12 03:25:14;;;;;;;;;17.25;17.00;;;;;;;;5086420;27;45339;-78
2022/10/12 03:27:39;;;;;;;;;11.00;10.50;;;;;;;;5090505;27;45329;-75
2022/10/12 03:30:04;;;;;;;;;14.75;13.75;;;;;;;;5086043;27;45322;-75
2022/10/12 03:32:30;;;;;;;;;23.50;16.00;;;;;;;;5090158;27;45428;-75
2022/10/12 03:34:55;;;;;;;;;15.25;14.00;;;;;;;;5094296;27;45848;-78
2022/10/12 03:37:20;;;;;;;;;15.00;15.00;;;;;;;;5097625;27;45476;-78
2022/10/12 03:39:46;;;;;;;;;13.75;12.75;;;;;;;;5087657;27;45553;-78
2022/10/12 03:42:11;;;;;;;;;20.00;13.25;;;;;;;;5085987;27;45963;-78
2022/10/12 03:44:36;;;;;;;;;19.25;15.00;;;;;;;;5086210;27;45362;-78
2022/10/12 03:47:01;;;;;;;;;14.75;12.50;;;;;;;;5084637;27;45360;-78
2022/10/12 03:49:27;;;;;;;;;14.00;10.75;;;;;;;;5079397;27;47292;-78
2022/10/12 03:51:52;;;;;;;;;16.00;15.50;;;;;;;;5085296;27;45403;-78
2022/10/12 03:54:17;;;;;;;;;21.25;16.00;;;;;;;;5086184;27;45435;-78
2022/10/12 03:56:43;;;;;;;;;21.25;19.25;;;;;;;;5093341;27;45773;-78
2022/10/12 03:59:08;;;;;;;;;19.75;18.75;;;;;;;;5086022;27;45472;-77
2022/10/12 04:01:33;;;;;;;;;23.00;21.00;;;;;;;;5093570;27;45422;-77
2022/10/12 04:03:58;;;;;;;;;26.00;21.00;;;;;;;;5088558;27;45398;-77
2022/10/12 04:06:23;;;;;;;;;21.25;21.25;;;;;;;;5088059;27;45478;-77
2022/10/12 04:08:49;;;;;;;;;20.25;17.25;;;;;;;;5070040;27;45563;-77
2022/10/12 04:11:15;;;;;;;;;17.75;15.25;;;;;;;;5084181;27;45583;-77
2022/10/12 04:13:40;;;;;;;;;16.75;16.75;;;;;;;;5085513;27;45542;-76
2022/10/12 04:16:06;;;;;;;;;19.25;18.00;;;;;;;;5088486;27;45213;-77
2022/10/12 04:18:32;;;;;;;;;20.50;16.50;;;;;;;;5092403;27;45972;-76
2022/10/12 04:20:58;;;;;;;;;15.00;12.75;;;;;;;;5090421;27;46142;-77
2022/10/12 04:23:23;;;;;;;;;17.25;17.00;;;;;;;;5090451;27;45350;-76
2022/10/12 04:25:48;;;;;;;;;11.50;11.50;;;;;;;;5096561;27;45525;-76
2022/10/12 04:28:13;;;;;;;;;17.00;15.75;;;;;;;;5085922;27;45540;-76
2022/10/12 04:30:39;;;;;;;;;14.75;13.00;;;;;;;;5068884;28;45571;-77
2022/10/12 04:33:04;;;;;;;;;13.75;13.00;;;;;;;;5075884;27;45327;-76
2022/10/12 04:35:30;;;;;;;;;20.50;16.25;;;;;;;;5095037;27;45422;-76
2022/10/12 04:37:55;;;;;;;;;23.50;17.00;;;;;;;;5089245;27;45525;-76
2022/10/12 04:40:20;;;;;;;;;17.75;14.00;;;;;;;;5095468;27;45395;-76
2022/10/12 04:42:45;;;;;;;;;16.50;13.00;;;;;;;;5090693;27;45366;-77
2022/10/12 04:45:11;;;;;;;;;19.50;16.50;;;;;;;;5090471;27;45828;-77
2022/10/12 04:47:36;;;;;;;;;18.00;14.50;;;;;;;;5092430;27;45550;-77
2022/10/12 04:50:01;;;;;;;;;19.00;13.25;;;;;;;;5092653;27;46641;-76
2022/10/12 04:52:27;;;;;;;;;16.75;14.50;;;;;;;;5078432;27;45481;-76
2022/10/12 04:54:52;;;;;;;;;16.50;12.75;;;;;;;;5096076;27;45585;-77
2022/10/12 04:57:17;;;;;;;;;18.00;13.00;;;;;;;;5097579;27;45314;-76
2022/10/12 04:59:42;;;;;;;;;20.00;19.25;;;;;;;;5089541;27;45586;-75
2022/10/12 05:02:07;;;;;;;;;27.00;22.00;;;;;;;;5086776;27;45473;-74
2022/10/12 05:04:33;;;;;;;;;17.50;15.00;;;;;;;;5078332;27;45568;-73
2022/10/12 05:06:58;;;;;;;;;35.25;32.00;;;;;;;;5099455;27;45531;-74
2022/10/12 05:09:23;;;;;;;;;24.50;24.00;;;;;;;;5067530;27;47267;-74
2022/10/12 05:11:48;;;;;;;;;32.00;28.00;;;;;;;;5081438;27;45269;-74
2022/10/12 05:14:13;;;;;;;;;27.75;23.25;;;;;;;;5098167;27;45319;-74
2022/10/12 05:16:39;;;;;;;;;22.25;18.00;;;;;;;;5093665;27;45219;-74
2022/10/12 05:19:04;;;;;;;;;25.25;19.25;;;;;;;;5094949;27;46380;-74
2022/10/12 05:21:29;;;;;;;;;18.25;16.50;;;;;;;;5096972;27;45200;-74
2022/10/12 05:23:54;;;;;;;;;29.75;24.00;;;;;;;;5067675;28;45276;-74
2022/10/12 05:26:20;;;;;;;;;26.75;21.50;;;;;;;;5084749;27;45256;-75
2022/10/12 05:28:45;;;;;;;;;15.25;15.25;;;;;;;;5093016;27;45378;-74
2022/10/12 05:31:10;;;;;;;;;18.25;16.00;;;;;;;;5087523;27;45196;-75
2022/10/12 05:33:35;;;;;;;;;17.75;14.25;;;;;;;;5072876;27;45235;-74
2022/10/12 05:36:01;;;;;;;;;17.00;15.50;;;;;;;;5095218;27;45619;-74
2022/10/12 05:38:26;;;;;;;;;17.25;17.25;;;;;;;;5093028;27;46143;-74
2022/10/12 05:40:51;;;;;;;;;19.00;16.25;;;;;;;;5095521;27;45396;-74
2022/10/12 05:43:17;;;;;;;;;16.75;15.50;;;;;;;;5092555;27;45333;-75
2022/10/12 05:45:42;;;;;;;;;20.00;18.75;;;;;;;;5085200;27;45268;-76
2022/10/12 05:48:07;;;;;;;;;17.50;16.00;;;;;;;;5093753;27;46182;-76
2022/10/12 05:50:32;;;;;;;;;18.00;16.00;;;;;;;;5080429;27;45279;-76
2022/10/12 05:52:57;;;;;;;;;19.25;16.75;;;;;;;;5077450;27;45272;-76
2022/10/12 05:55:23;;;;;;;;;24.75;16.25;;;;;;;;5089086;27;45273;-76
2022/10/12 05:57:48;;;;;;;;;17.50;17.25;;;;;;;;5082237;27;45466;-76
2022/10/12 06:00:14;;;;;;;;;20.50;16.75;;;;;;;;5068934;27;45394;-76
2022/10/12 06:02:39;;;;;;;;;22.00;17.00;;;;;;;;5093378;27;45391;-76
2022/10/12 06:05:05;;;;;;;;;18.00;18.00;;;;;;;;5085811;27;45445;-75
2022/10/12 06:07:30;;;;;;;;;22.75;20.50;;;;;;;;5083188;27;45373;-74
2022/10/12 06:09:55;;;;;;;;;19.00;17.25;;;;;;;;5088319;27;44667;-75
2022/10/12 06:12:21;;;;;;;;;20.75;19.25;;;;;;;;5079093;27;45413;-74
2022/10/12 06:14:46;;;;;;;;;20.25;18.00;;;;;;;;5085008;27;45605;-74
2022/10/12 06:17:11;;;;;;;;;19.75;17.00;;;;;;;;5090732;27;45527;-73
2022/10/12 06:19:36;;;;;;;;;21.75;20.00;;;;;;;;5087480;27;45233;-73
2022/10/12 06:22:02;;;;;;;;;14.75;14.75;;;;;;;;5094734;27;45244;-74
2022/10/12 06:24:27;;;;;;;;;22.50;17.25;;;;;;;;5078844;27;46137;-74
2022/10/12 06:26:53;;;;;;;;;17.00;16.50;;;;;;;;5080035;27;45217;-74
2022/10/12 06:29:18;;;;;;;;;19.50;19.50;;;;;;;;5082806;27;45215;-74
2022/10/12 06:31:43;;;;;;;;;21.25;18.00;;;;;;;;5080975;27;45277;-76
2022/10/12 06:34:08;;;;;;;;;22.00;21.00;;;;;;;;5087321;27;45489;-77
2022/10/12 06:36:34;;;;;;;;;22.75;22.75;;;;;;;;5068981;27;48682;-77
2022/10/12 06:38:59;;;;;;;;;34.75;26.50;;;;;;;;5088002;27;46283;-76
2022/10/12 06:41:24;;;;;;;;;24.50;21.75;;;;;;;;5080588;27;45770;-76
2022/10/12 06:43:49;;;;;;;;;28.00;25.25;;;;;;;;5083141;27;45510;-76
2022/10/12 06:46:14;;;;;;;;;22.75;20.25;;;;;;;;5082092;27;46370;-76
2022/10/12 06:48:40;;;;;;;;;37.00;33.00;;;;;;;;5092372;27;45422;-74
2022/10/12 06:51:05;;;;;;;;;29.75;21.50;;;;;;;;5075829;27;45441;-77
2022/10/12 06:53:31;;;;;;;;;31.00;26.75;;;;;;;;5091642;27;45353;-77
2022/10/12 06:55:57;;;;;;;;;22.25;20.25;;;;;;;;5089716;27;45448;-77
2022/10/12 06:58:22;;;;;;;;;31.75;27.75;;;;;;;;5083090;27;45414;-76
2022/10/12 07:00:47;;;;;;;;;25.50;22.75;;;;;;;;5064759;27;45466;-77
2022/10/12 07:03:13;;;;;;;;;45.75;38.50;;;;;;;;5083361;27;45559;-78
2022/10/12 07:05:38;;;;;;;;;28.00;23.50;;;;;;;;5076873;27;47270;-76
2022/10/12 07:08:03;;;;;;;;;25.00;23.50;;;;;;;;5090389;27;45506;-77
2022/10/12 07:10:29;;;;;;;;;25.00;24.25;;;;;;;;5083692;27;45645;-76
2022/10/12 07:12:54;;;;;;;;;23.25;20.75;;;;;;;;5091857;27;45426;-76
2022/10/12 07:15:19;;;;;;;;;25.75;23.00;;;;;;;;5081768;27;46013;-76
2022/10/12 07:17:44;;;;;;;;;28.50;23.25;;;;;;;;5080253;27;45280;-76
2022/10/12 07:20:10;;;;;;;;;28.25;20.75;;;;;;;;5086212;27;45253;-77
2022/10/12 07:22:35;;;;;;;;;25.50;21.25;;;;;;;;5075020;27;45536;-77
2022/10/12 07:25:00;;;;;;;;;25.25;21.50;;;;;;;;5069647;27;47809;-77
2022/10/12 07:27:25;;;;;;;;;28.00;24.75;;;;;;;;5087707;27;45539;-76
2022/10/12 07:29:50;;;;;;;;;23.00;16.75;;;;;;;;5083434;27;46216;-76
2022/10/12 07:32:16;;;;;;;;;24.00;21.00;;;;;;;;5078380;27;45225;-77
2022/10/12 07:34:43;;;;;;;;;25.25;23.00;;;;;;;;5072698;27;47160;-77
2022/10/12 07:37:08;;;;;;;;;26.25;20.25;;;;;;;;5079535;27;45354;-76
2022/10/12 07:39:34;;;;;;;;;25.00;20.50;;;;;;;;5082995;27;45427;-77
2022/10/12 07:41:59;;;;;;;;;27.50;24.00;;;;;;;;5077835;27;45412;-77
2022/10/12 07:44:24;;;;;;;;;23.50;21.50;;;;;;;;5081900;27;45382;-77
2022/10/12 07:46:50;;;;;;;;;26.75;22.00;;;;;;;;5078854;27;45315;-76
2022/10/12 07:49:15;;;;;;;;;27.00;22.50;;;;;;;;5083013;27;45231;-76
2022/10/12 07:51:41;;;;;;;;;25.75;22.50;;;;;;;;5082625;27;45288;-77
2022/10/12 07:54:07;;;;;;;;;29.25;25.75;;;;;;;;5084132;27;45530;-76
2022/10/12 07:56:32;;;;;;;;;25.75;21.25;;;;;;;;5083639;27;45409;-77
2022/10/12 07:58:57;;;;;;;;;29.75;27.75;;;;;;;;5081150;27;45419;-77
2022/10/12 08:01:24;;;;;;;;;27.50;23.50;;;;;;;;5077757;27;45986;-77
2022/10/12 08:03:50;;;;;;;;;28.00;24.50;;;;;;;;5072398;27;47224;-76
2022/10/12 08:06:17;;;;;;;;;32.25;27.25;;;;;;;;5092873;27;45284;-76
2022/10/12 08:08:43;;;;;;;;;30.75;25.50;;;;;;;;5076573;27;45347;-79
2022/10/12 08:11:08;;;;;;;;;25.75;23.00;;;;;;;;5096274;27;45221;-80
2022/10/12 08:13:34;;;;;;;;;32.75;27.75;;;;;;;;5089628;27;45410;-78
2022/10/12 08:16:01;;;;;;;;;29.50;24.00;;;;;;;;5091784;27;45298;-76
2022/10/12 08:18:27;;;;;;;;;31.00;28.00;;;;;;;;5092441;27;45461;-76
2022/10/12 08:20:52;;;;;;;;;29.75;29.00;;;;;;;;5080482;27;46001;-76
2022/10/12 08:23:17;;;;;;;;;33.00;28.25;;;;;;;;5090812;27;45425;-75
2022/10/12 08:25:50;;;;;;;;;30.50;27.50;;;;;;;;5083995;27;45780;-75
2022/10/12 08:28:15;;;;;;;;;27.50;23.25;;;;;;;;5091893;27;46160;-75
2022/10/12 08:30:40;;;;;;;;;26.50;25.00;;;;;;;;5097743;27;45340;-75
2022/10/12 08:33:05;;;;;;;;;31.00;26.50;;;;;;;;5093148;27;45492;-75
2022/10/12 08:35:31;;;;;;;;;31.00;28.50;;;;;;;;5094541;27;45344;-75
2022/10/12 08:37:56;;;;;;;;;34.00;28.75;;;;;;;;5079263;27;45265;-75
2022/10/12 08:40:27;;;;;;;;;30.75;27.75;;;;;;;;5084110;27;45396;-76
2022/10/12 08:43:00;;;;;;;;;29.75;25.75;;;;;;;;5083928;27;45399;-76
2022/10/12 08:45:28;;;;;;;;;29.75;24.50;;;;;;;;5082214;27;45305;-75
2022/10/12 08:47:57;;;;;;;;;28.00;25.25;;;;;;;;5095150;27;45441;-76
2022/10/12 08:50:22;;;;;;;;;25.50;25.50;;;;;;;;5083373;27;45413;-76
2022/10/12 08:53:14;;;;;;;;;30.75;25.75;;;;;;;;5081827;27;45383;-77
2022/10/12 08:55:42;;;;;;;;;30.75;28.75;;;;;;;;5065324;27;45738;-75
2022/10/12 08:58:19;;;;;;;;;27.00;24.25;;;;;;;;5090165;27;45782;-76
2022/10/12 09:00:46;;;;;;;;;29.25;24.00;;;;;;;;5080586;27;45424;-76
2022/10/12 09:03:26;;;;;;;;;26.75;24.50;;;;;;;;5097430;27;47249;-76
2022/10/12 09:06:11;;;;;;;;;26.50;24.25;;;;;;;;5093585;27;45302;-75
2022/10/12 09:08:36;;;;;;;;;23.50;23.50;;;;;;;;5085515;27;45327;-76
2022/10/12 09:11:20;;;;;;;;;25.75;24.50;;;;;;;;5090977;27;45358;-76
2022/10/12 09:14:03;;;;;;;;;29.25;26.50;;;;;;;;5092336;27;45233;-77
2022/10/12 09:16:31;;;;;;;;;27.50;26.75;;;;;;;;5088776;27;45263;-76
2022/10/12 09:19:02;;;;;;;;;29.75;27.75;;;;;;;;5094633;27;45400;-75
2022/10/12 09:21:28;;;;;;;;;29.75;25.00;;;;;;;;5096800;27;45375;-76
2022/10/12 09:23:55;;;;;;;;;31.00;26.00;;;;;;;;5088766;27;46295;-75
2022/10/12 09:26:29;;;;;;;;;29.00;26.25;;;;;;;;5086302;27;45343;-75
2022/10/12 09:28:55;;;;;;;;;30.25;23.25;;;;;;;;5074133;27;45436;-75
2022/10/12 09:31:30;;;;;;;;;30.25;30.25;;;;;;;;5092134;27;45664;-79
2022/10/12 09:33:56;;;;;;;;;29.75;28.00;;;;;;;;5069948;27;46952;-75
2022/10/12 09:36:22;;;;;;;;;36.25;29.75;;;;;;;;5098354;27;45271;-76
2022/10/12 09:38:48;;;;;;;;;35.00;30.00;;;;;;;;5092673;27;45390;-76
2022/10/12 09:41:18;;;;;;;;;33.00;28.25;;;;;;;;5079894;27;45837;-76
2022/10/12 09:43:43;;;;;;;;;28.00;27.00;;;;;;;;5092686;27;45484;-76
2022/10/12 09:46:12;;;;;;;;;31.50;28.50;;;;;;;;5091257;27;45470;-79
2022/10/12 09:48:54;;;;;;;;;40.25;33.00;;;;;;;;5085763;27;45253;-77
2022/10/12 09:51:19;;;;;;;;;33.00;27.75;;;;;;;;5091427;27;45310;-78
2022/10/12 09:53:48;;;;;;;;;37.00;31.00;;;;;;;;5067963;27;47958;-79
2022/10/12 09:56:31;;;;;;;;;30.75;29.00;;;;;;;;5090736;27;45331;-78
2022/10/12 09:59:01;;;;;;;;;29.50;26.75;;;;;;;;5069794;28;45382;-78
2022/10/12 10:01:26;;;;;;;;;31.50;25.75;;;;;;;;5079821;27;46034;-79
2022/10/12 10:04:07;;;;;;;;;30.50;25.50;;;;;;;;5082645;27;46740;-78
2022/10/12 10:06:33;;;;;;;;;28.75;27.25;;;;;;;;5068953;28;45438;-78
2022/10/12 10:08:58;;;;;;;;;62.25;51.00;;;;;;;;5097705;27;45441;-78
2022/10/12 10:11:25;;;;;;;;;36.50;30.00;;;;;;;;5097780;27;45498;-79
2022/10/12 10:13:52;;;;;;;;;27.00;26.00;;;;;;;;5091769;27;45419;-76
2022/10/12 10:16:18;;;;;;;;;31.67;28.33;;;;;;;;5070145;27;45453;-75
2022/10/12 10:18:49;;;;;;;;;47.75;38.00;;;;;;;;5084879;27;45284;-75
2022/10/12 10:21:23;;;;;;;;;24.00;23.33;;;;;;;;5086223;27;45359;-74
2022/10/12 10:24:08;;;;;;;;;26.33;23.33;;;;;;;;5086383;27;45384;-74
2022/10/12 10:27:12;;;;;;;;;30.67;25.67;;;;;;;;5083878;27;45339;-75
2022/10/12 10:29:39;;;;;;;;;41.50;33.75;;;;;;;;5005486;28;45554;-74
2022/10/12 10:32:28;;;;;;;;;31.00;28.00;;;;;;;;5006986;28;46147;-76
2022/10/12 10:35:12;;;;;;;;;30.67;26.33;;;;;;;;5060202;27;46302;-76
2022/10/12 10:37:41;;;;;;;;;33.67;27.00;;;;;;;;5093148;27;45368;-75
2022/10/12 10:40:15;;;;;;;;;30.00;26.67;;;;;;;;5093102;27;45264;-75
2022/10/12 10:42:40;;;;;;;;;43.00;34.00;;;;;;;;5076928;27;45621;-76
2022/10/12 10:45:07;;;;;;;;;26.67;26.67;;;;;;;;5090500;27;46417;-74
2022/10/12 10:47:33;;;;;;;;;29.00;25.33;;;;;;;;5091448;27;45279;-74
2022/10/12 10:50:00;;;;;;;;;26.67;22.67;;;;;;;;5080133;27;45456;-77
2022/10/12 10:52:27;;;;;;;;;28.00;23.67;;;;;;;;5084427;27;46034;-76
2022/10/12 10:55:15;;;;;;;;;26.00;22.67;;;;;;;;5087911;27;46309;-76
2022/10/12 10:57:45;;;;;;;;;23.33;20.67;;;;;;;;5082469;27;45332;-76
2022/10/12 11:00:15;;;;;;;;;21.33;21.00;;;;;;;;5090024;27;45370;-74
2022/10/12 11:02:43;;;;;;;;;23.33;19.00;;;;;;;;5084232;27;47009;-77
2022/10/12 11:05:08;;;;;;;;;22.33;19.00;;;;;;;;5079728;27;46437;-76
2022/10/12 11:07:43;;;;;;;;;19.00;19.00;;;;;;;;5092090;27;45600;-76
2022/10/12 11:10:28;;;;;;;;;20.00;19.00;;;;;;;;5090444;27;45739;-75
2022/10/12 11:13:02;;;;;;;;;25.33;18.33;;;;;;;;5093337;27;45549;-75
2022/10/12 11:15:33;;;;;;;;;24.00;20.00;;;;;;;;5095642;27;45413;-75
2022/10/12 11:18:19;;;;;;;;;25.67;19.00;;;;;;;;5094889;27;45297;-75
2022/10/12 11:20:50;;;;;;;;;20.00;18.00;;;;;;;;5069882;27;45379;-75
2022/10/12 11:23:28;;;;;;;;;16.67;15.33;;;;;;;;5084277;27;45264;-75
2022/10/12 11:25:59;;;;;;;;;16.67;15.33;;;;;;;;5078107;28;45316;-75
2022/10/12 11:28:27;;;;;;;;;13.00;13.00;;;;;;;;5089483;27;45445;-74
2022/10/12 11:30:52;;;;;;;;;14.67;12.67;;;;;;;;5090563;27;45306;-75
2022/10/12 11:33:20;;;;;;;;;17.00;13.00;;;;;;;;5089053;27;45525;-75
2022/10/12 11:35:46;;;;;;;;;13.33;10.33;;;;;;;;5088924;27;45230;-75
2022/10/12 11:38:22;;;;;;;;;13.67;13.67;;;;;;;;5084906;27;45276;-75
2022/10/12 11:40:50;;;;;;;;;12.67;11.33;;;;;;;;5091149;27;45349;-75
2022/10/12 11:43:18;;;;;;;;;13.33;12.67;;;;;;;;5077532;27;46954;-75
2022/10/12 11:45:48;;;;;;;;;22.00;16.00;;;;;;;;5079171;27;48346;-74
2022/10/12 11:48:21;;;;;;;;;15.00;14.00;;;;;;;;5077104;28;45390;-75
2022/10/12 11:50:48;;;;;;;;;13.67;11.33;;;;;;;;5090827;27;45244;-74
2022/10/12 11:53:27;;;;;;;;;16.67;14.00;;;;;;;;5088384;27;45517;-75
2022/10/12 11:55:52;;;;;;;;;16.33;11.67;;;;;;;;5091591;27;45414;-75
2022/10/12 11:58:20;;;;;;;;;19.00;13.67;;;;;;;;5090807;27;45323;-75
2022/10/12 12:00:55;;;;;;;;;14.00;13.00;;;;;;;;5088699;27;45212;-75
2022/10/12 12:03:38;;;;;;;;;15.67;13.67;;;;;;;;5086932;27;45558;-75
2022/10/12 12:06:23;;;;;;;;;13.00;13.00;;;;;;;;5085666;27;45262;-75
2022/10/12 12:08:54;;;;;;;;;10.00;9.67;;;;;;;;5096210;27;45450;-76
2022/10/12 12:11:26;;;;;;;;;11.67;10.67;;;;;;;;5091593;27;45354;-75
2022/10/12 12:14:11;;;;;;;;;11.67;11.00;;;;;;;;5095122;27;45156;-75
2022/10/12 12:16:41;;;;;;;;;10.67;10.67;;;;;;;;5080166;27;47209;-75
2022/10/12 12:19:13;;;;;;;;;12.00;10.33;;;;;;;;5097878;27;45517;-75
2022/10/12 12:21:57;;;;;;;;;17.33;11.00;;;;;;;;5083965;27;45247;-76
2022/10/12 12:24:22;;;;;;;;;13.33;11.00;;;;;;;;5092643;27;45240;-76
2022/10/12 12:26:47;;;;;;;;;11.67;10.00;;;;;;;;5085989;27;45434;-76
2022/10/12 12:29:20;;;;;;;;;13.00;12.00;;;;;;;;5095266;27;45453;-75
2022/10/12 12:31:55;;;;;;;;;17.33;13.00;;;;;;;;5093144;27;45575;-76
2022/10/12 12:34:20;;;;;;;;;15.67;15.00;;;;;;;;5078502;27;45743;-75
2022/10/12 12:36:48;;;;;;;;;15.33;12.67;;;;;;;;5098165;27;46127;-76
2022/10/12 12:39:31;;;;;;;;;12.67;11.00;;;;;;;;5089618;27;45375;-76
2022/10/12 12:42:01;;;;;;;;;7.00;7.00;;;;;;;;5088523;27;45289;-75
2022/10/12 12:44:41;;;;;;;;;11.00;10.00;;;;;;;;5089164;27;45548;-76
2022/10/12 12:47:07;;;;;;;;;11.67;10.33;;;;;;;;5090981;27;46223;-76
2022/10/12 12:49:51;;;;;;;;;14.50;10.00;;;;;;;;5087211;27;45415;-75
2022/10/12 12:52:19;;;;;;;;;10.67;10.67;;;;;;;;5097344;27;45601;-75
2022/10/12 12:55:03;;;;;;;;;10.67;9.33;;;;;;;;5095053;27;45326;-75
2022/10/12 12:57:31;;;;;;;;;17.67;12.00;;;;;;;;5094634;27;46385;-76
2022/10/12 12:59:56;;;;;;;;;14.67;13.00;;;;;;;;5088269;27;45361;-75
2022/10/12 13:02:41;;;;;;;;;16.33;10.00;;;;;;;;5096112;27;45241;-75
2022/10/12 13:05:25;;;;;;;;;10.00;7.00;;;;;;;;5081333;27;45494;-75
2022/10/12 13:08:03;;;;;;;;;9.67;9.00;;;;;;;;5080476;27;48219;-75
2022/10/12 13:10:34;;;;;;;;;11.00;9.00;;;;;;;;5094233;27;45301;-75
2022/10/12 13:13:17;;;;;;;;;9.00;9.00;;;;;;;;5083206;27;45372;-75
2022/10/12 13:15:58;;;;;;;;;11.67;11.00;;;;;;;;5082682;27;45823;-75
2022/10/12 13:18:32;;;;;;;;;16.33;11.33;;;;;;;;5075910;27;46914;-75
2022/10/12 13:20:58;;;;;;;;;15.00;13.00;;;;;;;;5085171;27;45295;-75
2022/10/12 13:23:25;;;;;;;;;8.67;8.67;;;;;;;;5096179;27;45385;-76
2022/10/12 13:25:53;;;;;;;;;7.67;7.33;;;;;;;;5092499;27;45549;-75
2022/10/12 13:28:26;;;;;;;;;9.67;9.00;;;;;;;;5075807;28;48291;-75
2022/10/12 13:30:59;;;;;;;;;6.33;6.33;;;;;;;;5093991;27;45240;-75
2022/10/12 13:33:27;;;;;;;;;7.00;7.00;;;;;;;;5067475;27;45462;-75
2022/10/12 13:35:57;;;;;;;;;10.00;9.00;;;;;;;;5078226;27;45302;-76
2022/10/12 13:38:24;;;;;;;;;10.00;10.00;;;;;;;;5090784;27;45561;-75
2022/10/12 13:41:01;;;;;;;;;7.67;7.67;;;;;;;;5090762;27;45513;-75
2022/10/12 13:43:26;;;;;;;;;8.67;8.00;;;;;;;;5094152;27;45232;-75
2022/10/12 13:45:51;;;;;;;;;8.67;8.33;;;;;;;;5088522;27;46141;-75
2022/10/12 13:48:18;;;;;;;;;10.33;7.33;;;;;;;;5083610;27;47689;-75
2022/10/12 13:50:54;;;;;;;;;8.00;8.00;;;;;;;;5090110;27;45228;-75
2022/10/12 13:53:20;;;;;;;;;10.33;7.00;;;;;;;;5087012;27;45451;-75
2022/10/12 13:56:11;;;;;;;;;7.00;6.33;;;;;;;;5093475;27;45414;-77
2022/10/12 13:58:37;;;;;;;;;7.00;7.00;;;;;;;;5087024;27;46302;-75
2022/10/12 14:01:02;;;;;;;;;7.75;6.25;;;;;;;;5086157;27;45808;-75
2022/10/12 14:03:54;;;;;;;;;6.33;5.00;;;;;;;;5088272;27;45426;-75
2022/10/12 14:06:24;;;;;;;;;7.00;7.00;;;;;;;;5071758;27;46993;-77
2022/10/12 14:08:50;;;;;;;;;5.25;5.25;;;;;;;;5085816;27;46347;-77
2022/10/12 14:11:16;;;;;;;;;6.00;6.00;;;;;;;;5095534;27;45264;-74
2022/10/12 14:13:44;;;;;;;;;7.75;6.25;;;;;;;;5073168;28;45420;-74
2022/10/12 14:16:10;;;;;;;;;7.75;6.25;;;;;;;;5076119;27;46167;-75
2022/10/12 14:18:40;;;;;;;;;10.33;7.00;;;;;;;;5074644;27;47068;-75
2022/10/12 14:21:05;;;;;;;;;9.00;7.00;;;;;;;;5087845;27;45379;-75
2022/10/12 14:23:30;;;;;;;;;8.67;6.33;;;;;;;;5078492;27;45347;-75
2022/10/12 14:25:56;;;;;;;;;9.00;6.33;;;;;;;;5083991;27;45248;-76
2022/10/12 14:28:27;;;;;;;;;8.00;6.75;;;;;;;;5095436;27;46050;-75